Feesburg, Ohio
Current Conditions -  °F | °C
As of 7:15 AM on Saturday 20 Dec 2014 (Local Time) from KFGX Reporting Station
Light Snow Light Snow  
Wind Chill: 27°   Ceiling: 6000
Heat Index: 27°   Visibility: 3mi
Dew Point: 24°   Wind: 0mph
Humidity: 89%   Direction: NA
Pressure: 30.28"   Gusts: NA
Location:  38.88°N, 84°W
Report Text: KFGX 201215Z AUTO 00000KT 3SM -SN OVC060 M03/M04 A3028 RMK AO2 T10271043
Loading
Personal Weather Stations






























Interactive Weather Map New forecast layout! Learn more

10-Day Weather Forecast

Advertisements
Track Severe Weather on mobile